Terminal Aerodrome Forecast
Issued by NWS

Home | Current Version | Previous Version | Text Only | Print | Product List | Glossary On
Versions: 1 2 3 4 5 6 7 8 9 10 11 12 13 14 15 16 17
000
FTUS42 KFFC 240500
TAFRYY
TAF
KRYY 240522Z 2406/2506 00000KT P6SM SKC
     FM241100 10010KT P6SM SKC
     FM241800 14006KT P6SM SCT060
     FM242300 16006KT P6SM BKN060
      AMD NOT SKED TIL 241200=

USA.gov is the U.S. government's official web portal to all federal, state and local government web resources and services.